Time;durP1;ratioP1;P1;durP2;ratioP2;P2;SDS_P1;SDS_P2;PMS_P1;PMS_P2;Temp;Humidity;BMP_temperature;BMP_pressure;BME280_temperature;BME280_humidity;BME280_pressure;Samples;Min_cycle;Max_cycle;Signal;HPM_P1;HPM_P2
2023/07/11 00:13:29;;;;;;;8.88;5.57;;;;;;;;;;10682426;27;20449;-90
2023/07/11 00:18:32;;;;;;;9.73;5.68;;;;;;;;;;10676001;27;20293;-89
2023/07/11 00:23:35;;;;;;;;;;;;;;;;;;10684275;27;20046;-88
2023/07/11 00:28:39;;;;;;;8.73;5.73;;;;;;;;;;10679518;27;19923;-90
2023/07/11 00:33:42;;;;;;;11.60;5.80;;;;;;;;;;10653303;27;20043;-91
2023/07/11 00:38:45;;;;;;;11.35;5.90;;;;;;;;;;10632631;27;20503;-90
2023/07/11 00:43:49;;;;;;;11.18;6.03;;;;;;;;;;10627834;27;20103;-91
2023/07/11 00:48:54;;;;;;;11.82;6.00;;;;;;;;;;10624400;27;20066;-90
2023/07/11 00:53:57;;;;;;;12.10;6.53;;;;;;;;;;10626389;27;20076;-90
2023/07/11 00:59:02;;;;;;;10.02;5.88;;;;;;;;;;10625812;27;20468;-89
2023/07/11 01:04:06;;;;;;;12.15;6.40;;;;;;;;;;10626024;27;20070;-89
2023/07/11 01:09:10;;;;;;;14.18;6.00;;;;;;;;;;10629172;27;20039;-90
2023/07/11 01:14:14;;;;;;;9.95;5.57;;;;;;;;;;10626853;27;20067;-90
2023/07/11 01:19:17;;;;;;;13.13;6.57;;;;;;;;;;10631126;27;20741;-90
2023/07/11 01:24:21;;;;;;;11.32;6.05;;;;;;;;;;10609128;27;20139;-91
2023/07/11 01:29:25;;;;;;;12.60;5.95;;;;;;;;;;10606185;27;20100;-91
2023/07/11 01:34:28;;;;;;;;;;;;;;;;;;10608461;27;20428;-91
2023/07/11 01:39:33;;;;;;;12.27;6.60;;;;;;;;;;10608546;27;20356;-89
2023/07/11 01:44:36;;;;;;;11.82;6.38;;;;;;;;;;10602229;27;20046;-90
2023/07/11 01:49:39;;;;;;;;;;;;;;;;;;10598461;27;20116;-89
2023/07/11 01:54:43;;;;;;;12.27;6.03;;;;;;;;;;10596731;27;20346;-87
2023/07/11 01:59:46;;;;;;;12.73;6.47;;;;;;;;;;10602414;27;20135;-89
2023/07/11 02:04:49;;;;;;;9.93;6.65;;;;;;;;;;10600144;27;20130;-88
2023/07/11 02:09:54;;;;;;;10.77;6.07;;;;;;;;;;10608463;27;22361;-88
2023/07/11 02:14:57;;;;;;;11.15;6.30;;;;;;;;;;10612810;27;20031;-88
2023/07/11 02:20:03;;;;;;;10.38;6.60;;;;;;;;;;10616686;27;20035;-89
2023/07/11 02:25:14;;;;;;;;;;;;;;;;;;10599382;27;20479;-90
2023/07/11 02:30:23;;;;;;;11.25;5.90;;;;;;;;;;10605536;27;20026;-88
2023/07/11 02:35:33;;;;;;;12.35;6.32;;;;;;;;;;10606342;27;20322;-89
2023/07/11 02:40:53;;;;;;;11.13;6.28;;;;;;;;;;10601457;27;20345;-89
2023/07/11 02:46:02;;;;;;;13.60;6.70;;;;;;;;;;10591982;27;20627;-89
2023/07/11 02:51:22;;;;;;;13.20;7.07;;;;;;;;;;10603925;27;20185;-88
2023/07/11 02:56:29;;;;;;;15.75;7.03;;;;;;;;;;10596073;27;20354;-87
2023/07/11 03:02:03;;;;;;;11.02;6.55;;;;;;;;;;10592607;27;20043;-90
2023/07/11 03:07:21;;;;;;;12.25;6.55;;;;;;;;;;10612459;27;20153;-90
2023/07/11 03:12:30;;;;;;;15.27;6.95;;;;;;;;;;10607732;27;20083;-89
2023/07/11 03:17:35;;;;;;;11.52;6.30;;;;;;;;;;10606028;27;20046;-90
2023/07/11 03:22:46;;;;;;;9.60;6.22;;;;;;;;;;10602378;27;20054;-90
2023/07/11 03:27:53;;;;;;;11.35;6.07;;;;;;;;;;10614363;27;20117;-90
2023/07/11 03:32:58;;;;;;;12.57;6.25;;;;;;;;;;10599502;27;20043;-89
2023/07/11 03:38:10;;;;;;;12.73;6.68;;;;;;;;;;10597415;27;20138;-90
2023/07/11 03:43:21;;;;;;;12.35;6.63;;;;;;;;;;10624390;27;20045;-90
2023/07/11 03:48:35;;;;;;;12.00;6.25;;;;;;;;;;10639783;27;20149;-90
2023/07/11 03:53:54;;;;;;;12.13;6.13;;;;;;;;;;10638848;27;20035;-90
2023/07/11 03:59:09;;;;;;;11.77;6.13;;;;;;;;;;10635605;27;20580;-90
2023/07/11 04:04:18;;;;;;;13.75;6.70;;;;;;;;;;10613581;27;20038;-89
2023/07/11 04:09:33;;;;;;;10.70;6.20;;;;;;;;;;10634643;27;20470;-89
2023/07/11 04:14:55;;;;;;;12.55;6.80;;;;;;;;;;10611179;27;20054;-89
2023/07/11 04:31:13;;;;;;;12.95;6.15;;;;;;;;;;10634932;27;20049;-89
2023/07/11 04:41:45;;;;;;;11.82;6.45;;;;;;;;;;10623017;27;20440;-89
2023/07/11 04:47:13;;;;;;;11.73;6.90;;;;;;;;;;10640358;27;20042;-89
2023/07/11 04:52:33;;;;;;;14.48;6.45;;;;;;;;;;10635733;27;20066;-89
2023/07/11 04:57:48;;;;;;;19.13;6.50;;;;;;;;;;10618812;27;20141;-90
2023/07/11 05:03:20;;;;;;;14.55;6.57;;;;;;;;;;10470088;27;20498;-89
2023/07/11 05:08:23;;;;;;;10.77;6.15;;;;;;;;;;10467905;28;20078;-90
2023/07/11 05:13:26;;;;;;;10.43;5.70;;;;;;;;;;10463210;28;20441;-91
2023/07/11 05:18:31;;;;;;;8.73;5.82;;;;;;;;;;10465129;28;21565;-89
2023/07/11 05:23:33;;;;;;;9.45;5.18;;;;;;;;;;10464208;28;20045;-87
2023/07/11 05:28:37;;;;;;;10.48;5.55;;;;;;;;;;10471915;28;20036;-88
2023/07/11 05:33:42;;;;;;;9.38;5.15;;;;;;;;;;10465460;28;20190;-83
2023/07/11 05:38:44;;;;;;;8.75;4.90;;;;;;;;;;10472088;28;20057;-75
2023/07/11 05:43:47;;;;;;;;;;;;;;;;;;10463051;28;20063;-76
2023/07/11 05:48:52;;;;;;;8.43;4.80;;;;;;;;;;10457397;28;20326;-76
2023/07/11 05:53:54;;;;;;;7.53;4.72;;;;;;;;;;10456836;28;20321;-75
2023/07/11 05:58:58;;;;;;;9.48;4.95;;;;;;;;;;10454103;28;20036;-74
2023/07/11 06:04:07;;;;;;;9.57;4.95;;;;;;;;;;10454218;28;20609;-76
2023/07/11 06:09:11;;;;;;;11.75;5.65;;;;;;;;;;10448109;28;20102;-75
2023/07/11 06:14:14;;;;;;;10.93;5.97;;;;;;;;;;10424391;28;20045;-75
2023/07/11 06:19:18;;;;;;;11.07;6.15;;;;;;;;;;10425365;28;20044;-75
2023/07/11 06:24:21;;;;;;;11.32;5.60;;;;;;;;;;10426217;28;20041;-75
2023/07/11 06:29:24;;;;;;;10.88;5.32;;;;;;;;;;10425347;28;20041;-76
2023/07/11 06:34:27;;;;;;;;;;;;;;;;;;10429869;28;20133;-75
2023/07/11 06:39:31;;;;;;;6.67;3.70;;;;;;;;;;10427711;28;20275;-76
2023/07/11 06:44:35;;;;;;;9.43;3.88;;;;;;;;;;10418073;28;20129;-76
2023/07/11 06:49:38;;;;;;;6.97;4.00;;;;;;;;;;10410445;28;20068;-76
2023/07/11 06:54:42;;;;;;;9.77;4.57;;;;;;;;;;10415018;28;20064;-74
2023/07/11 06:59:45;;;;;;;10.82;4.55;;;;;;;;;;10412837;28;20045;-75
2023/07/11 07:04:47;;;;;;;;;;;;;;;;;;10415261;28;20757;-75
2023/07/11 07:09:51;;;;;;;10.00;5.00;;;;;;;;;;10414990;28;20005;-76
2023/07/11 07:14:55;;;;;;;9.82;5.03;;;;;;;;;;10415770;28;20049;-75
2023/07/11 07:19:57;;;;;;;;;;;;;;;;;;10415875;28;20060;-75
2023/07/11 07:25:01;;;;;;;6.78;4.20;;;;;;;;;;10418219;28;19929;-75
2023/07/11 07:30:24;;;;;;;5.47;3.28;;;;;;;;;;10416156;28;20055;-75
2023/07/11 07:35:28;;;;;;;7.75;4.43;;;;;;;;;;10413482;28;20892;-75
2023/07/11 07:40:32;;;;;;;9.18;4.70;;;;;;;;;;10413212;28;20099;-76
2023/07/11 07:45:35;;;;;;;8.65;5.03;;;;;;;;;;10414426;28;20041;-76
2023/07/11 07:50:37;;;;;;;8.00;5.00;;;;;;;;;;10413556;28;20045;-76
2023/07/11 07:55:41;;;;;;;7.53;4.90;;;;;;;;;;10410447;28;20044;-76
2023/07/11 08:00:44;;;;;;;7.03;4.68;;;;;;;;;;10413062;28;20056;-76
2023/07/11 08:05:47;;;;;;;6.28;4.35;;;;;;;;;;10416152;28;20049;-75
2023/07/11 08:11:00;;;;;;;9.63;4.68;;;;;;;;;;10413696;28;20761;-77
2023/07/11 08:16:03;;;;;;;8.13;5.00;;;;;;;;;;10416254;28;20053;-77
2023/07/11 08:21:26;;;;;;;9.38;4.97;;;;;;;;;;10414735;28;20037;-75
2023/07/11 08:26:30;;;;;;;8.90;4.90;;;;;;;;;;10415185;28;20122;-76
2023/07/11 08:31:33;;;;;;;8.52;5.22;;;;;;;;;;10416270;28;20047;-76
2023/07/11 08:36:38;;;;;;;10.20;5.95;;;;;;;;;;10411834;28;20059;-76
2023/07/11 08:41:44;;;;;;;8.32;5.32;;;;;;;;;;10411098;28;20048;-76
2023/07/11 08:46:51;;;;;;;12.32;6.13;;;;;;;;;;10416391;28;20390;-76
2023/07/11 08:51:55;;;;;;;11.73;5.55;;;;;;;;;;10412972;28;20041;-76
2023/07/11 08:57:00;;;;;;;9.57;5.85;;;;;;;;;;10414827;28;20092;-77
2023/07/11 09:02:07;;;;;;;8.65;5.65;;;;;;;;;;10412960;28;20581;-76
2023/07/11 09:07:12;;;;;;;7.10;5.68;;;;;;;;;;10410156;28;20052;-76
2023/07/11 09:12:20;;;;;;;7.95;5.82;;;;;;;;;;10413288;28;20478;-77
2023/07/11 09:17:26;;;;;;;9.35;5.70;;;;;;;;;;10408711;28;20166;-76
2023/07/11 09:22:31;;;;;;;8.32;5.57;;;;;;;;;;10406822;28;20429;-77
2023/07/11 09:27:38;;;;;;;9.43;6.20;;;;;;;;;;10408528;28;20552;-76
2023/07/11 09:32:42;;;;;;;8.73;6.55;;;;;;;;;;10409087;28;20052;-77
2023/07/11 09:37:47;;;;;;;8.82;7.38;;;;;;;;;;10409561;28;20076;-77
2023/07/11 09:42:53;;;;;;;9.38;6.65;;;;;;;;;;10408782;28;20164;-76
2023/07/11 09:48:02;;;;;;;12.68;6.57;;;;;;;;;;10415809;28;20063;-81
2023/07/11 09:53:09;;;;;;;7.82;6.15;;;;;;;;;;10420784;28;20045;-76
2023/07/11 09:58:17;;;;;;;8.75;5.93;;;;;;;;;;10422451;28;20048;-78
2023/07/11 10:03:21;;;;;;;8.02;6.38;;;;;;;;;;10416168;28;20033;-76
2023/07/11 10:08:27;;;;;;;9.40;6.53;;;;;;;;;;10416307;28;20720;-77
2023/07/11 10:13:31;;;;;;;9.43;6.27;;;;;;;;;;10414077;28;20060;-77
2023/07/11 10:18:39;;;;;;;8.02;6.38;;;;;;;;;;10415902;28;20121;-77
2023/07/11 10:23:43;;;;;;;8.20;6.40;;;;;;;;;;10427237;28;20041;-77
2023/07/11 10:28:52;;;;;;;7.15;5.88;;;;;;;;;;10421509;28;20055;-77
2023/07/11 10:33:57;;;;;;;9.65;6.30;;;;;;;;;;10425521;28;20044;-76
2023/07/11 10:39:05;;;;;;;9.48;7.03;;;;;;;;;;10419200;28;20045;-76
2023/07/11 10:44:12;;;;;;;9.85;7.05;;;;;;;;;;10432774;28;20495;-77
2023/07/11 10:49:16;;;;;;;9.43;7.40;;;;;;;;;;10428525;28;20636;-76
2023/07/11 10:54:22;;;;;;;8.85;7.00;;;;;;;;;;10432276;28;20117;-76
2023/07/11 10:59:25;;;;;;;;;;;;;;;;;;10431967;28;20521;-77
2023/07/11 11:04:37;;;;;;;8.82;6.57;;;;;;;;;;10424204;28;19947;-78
2023/07/11 11:09:43;;;;;;;9.68;6.57;;;;;;;;;;10434593;28;20079;-75
2023/07/11 11:14:49;;;;;;;8.18;6.30;;;;;;;;;;10429300;28;20064;-76
2023/07/11 11:20:00;;;;;;;8.93;6.47;;;;;;;;;;10436157;28;20251;-77
2023/07/11 11:25:04;;;;;;;7.03;5.60;;;;;;;;;;10425972;28;20498;-77
2023/07/11 11:30:20;;;;;;;9.45;6.22;;;;;;;;;;10429987;28;20495;-77
2023/07/11 11:35:32;;;;;;;9.27;5.27;;;;;;;;;;10427787;28;20479;-77
2023/07/11 11:40:38;;;;;;;8.20;5.78;;;;;;;;;;10427294;28;20040;-76
2023/07/11 11:45:41;;;;;;;7.50;4.80;;;;;;;;;;10428460;28;20040;-77
2023/07/11 11:51:07;;;;;;;10.23;6.20;;;;;;;;;;10431222;28;20059;-77
2023/07/11 11:56:16;;;;;;;7.95;5.55;;;;;;;;;;10421139;28;20064;-76
2023/07/11 12:01:33;;;;;;;8.13;5.38;;;;;;;;;;10414345;28;20099;-76
2023/07/11 12:06:42;;;;;;;8.02;5.82;;;;;;;;;;10416619;28;20072;-78
2023/07/11 12:11:45;;;;;;;9.13;5.13;;;;;;;;;;10413336;28;20045;-77
2023/07/11 12:16:50;;;;;;;9.68;5.63;;;;;;;;;;10413586;28;20793;-76
2023/07/11 12:21:59;;;;;;;6.72;4.95;;;;;;;;;;10413778;28;20041;-77
2023/07/11 12:27:10;;;;;;;7.82;5.55;;;;;;;;;;10415661;28;20084;-77
2023/07/11 12:32:31;;;;;;;7.40;5.75;;;;;;;;;;10415705;28;20056;-75
2023/07/11 12:37:39;;;;;;;12.02;5.65;;;;;;;;;;10415264;28;20126;-76
2023/07/11 12:42:47;;;;;;;6.63;5.65;;;;;;;;;;10419618;28;20044;-77
2023/07/11 12:47:53;;;;;;;9.65;5.95;;;;;;;;;;10415366;28;20403;-76
2023/07/11 12:53:03;;;;;;;9.32;7.07;;;;;;;;;;10414708;28;20398;-77
2023/07/11 12:58:05;;;;;;;8.70;5.88;;;;;;;;;;10410964;28;20124;-77
2023/07/11 13:03:18;;;;;;;8.73;5.60;;;;;;;;;;10411327;28;20071;-77
2023/07/11 13:08:22;;;;;;;8.48;5.22;;;;;;;;;;10410178;28;20481;-76
2023/07/11 13:13:26;;;;;;;9.70;5.30;;;;;;;;;;10410870;28;20508;-76
2023/07/11 13:18:30;;;;;;;8.50;5.45;;;;;;;;;;10414665;28;20045;-77
2023/07/11 13:23:37;;;;;;;9.38;5.25;;;;;;;;;;10421599;28;20043;-76
2023/07/11 13:28:41;;;;;;;7.68;5.28;;;;;;;;;;10426884;28;20047;-77
2023/07/11 13:33:44;;;;;;;9.25;5.65;;;;;;;;;;10432206;28;20136;-76
2023/07/11 13:39:05;;;;;;;8.05;5.25;;;;;;;;;;10433308;28;20045;-77
2023/07/11 13:44:15;;;;;;;8.43;5.00;;;;;;;;;;10424806;28;20060;-76
2023/07/11 13:49:18;;;;;;;;;;;;;;;;;;10426559;28;20047;-76
2023/07/11 13:54:28;;;;;;;6.90;5.15;;;;;;;;;;10425607;28;20432;-75
2023/07/11 13:59:31;;;;;;;9.38;4.97;;;;;;;;;;10424279;28;20051;-76
2023/07/11 14:04:37;;;;;;;7.80;5.03;;;;;;;;;;10422914;28;20041;-75
2023/07/11 14:09:42;;;;;;;7.93;5.00;;;;;;;;;;10426559;28;20047;-77
2023/07/11 14:14:44;;;;;;;7.43;4.40;;;;;;;;;;10424464;28;20479;-76
2023/07/11 14:19:47;;;;;;;8.80;5.10;;;;;;;;;;10433254;28;20334;-76
2023/07/11 14:24:52;;;;;;;8.30;5.22;;;;;;;;;;10432173;28;20045;-75
2023/07/11 14:29:55;;;;;;;7.45;5.03;;;;;;;;;;10430632;28;20051;-76
2023/07/11 14:35:01;;;;;;;10.20;5.13;;;;;;;;;;10421127;28;20066;-77
2023/07/11 14:40:06;;;;;;;8.65;4.80;;;;;;;;;;10421152;28;20275;-77
2023/07/11 14:45:13;;;;;;;9.98;4.97;;;;;;;;;;10424162;28;20131;-76
2023/07/11 14:50:16;;;;;;;10.75;5.00;;;;;;;;;;10422124;28;20087;-76
2023/07/11 14:55:21;;;;;;;7.47;5.10;;;;;;;;;;10421485;28;20491;-77
2023/07/11 15:00:29;;;;;;;8.75;5.20;;;;;;;;;;10419631;28;20049;-78
2023/07/11 15:05:33;;;;;;;8.05;5.30;;;;;;;;;;10416637;28;20063;-77
2023/07/11 15:10:41;;;;;;;8.93;5.00;;;;;;;;;;10418729;28;20044;-77
2023/07/11 15:15:44;;;;;;;9.70;5.13;;;;;;;;;;10423331;28;20418;-76
2023/07/11 15:20:47;;;;;;;9.30;4.95;;;;;;;;;;10428309;28;20131;-75
2023/07/11 15:25:52;;;;;;;9.35;5.55;;;;;;;;;;10424355;28;20037;-76
2023/07/11 15:30:57;;;;;;;7.80;4.15;;;;;;;;;;10420902;28;20112;-77
2023/07/11 15:36:00;;;;;;;7.97;4.40;;;;;;;;;;10418445;28;20049;-76
2023/07/11 15:41:07;;;;;;;6.03;3.25;;;;;;;;;;10423416;28;20136;-76
2023/07/11 15:46:12;;;;;;;6.47;3.90;;;;;;;;;;10416285;28;20406;-75
2023/07/11 15:51:16;;;;;;;6.05;3.15;;;;;;;;;;10420563;28;20120;-77
2023/07/11 15:56:20;;;;;;;4.20;2.70;;;;;;;;;;10420767;28;20124;-76
2023/07/11 16:01:22;;;;;;;6.72;3.10;;;;;;;;;;10440695;28;20067;-75
2023/07/11 16:06:26;;;;;;;7.82;3.45;;;;;;;;;;10419913;28;20037;-76
2023/07/11 16:11:30;;;;;;;6.05;3.25;;;;;;;;;;10428742;28;20032;-77
2023/07/11 16:16:33;;;;;;;7.95;3.22;;;;;;;;;;10431949;28;20037;-76
2023/07/11 16:21:35;;;;;;;5.70;2.80;;;;;;;;;;10430427;28;20043;-76
2023/07/11 16:26:39;;;;;;;7.05;3.10;;;;;;;;;;10428859;28;20127;-77
2023/07/11 16:31:42;;;;;;;4.95;2.65;;;;;;;;;;10427086;28;20052;-77
2023/07/11 16:36:46;;;;;;;5.38;3.03;;;;;;;;;;10424743;28;20235;-78
2023/07/11 16:41:50;;;;;;;5.70;3.45;;;;;;;;;;10425159;28;20048;-77
2023/07/11 16:46:55;;;;;;;6.05;3.00;;;;;;;;;;10422382;28;20041;-77
2023/07/11 16:51:57;;;;;;;7.25;3.10;;;;;;;;;;10424324;28;20124;-77
2023/07/11 16:57:01;;;;;;;4.47;2.08;;;;;;;;;;10428782;28;20413;-77
2023/07/11 17:02:17;;;;;;;5.90;3.03;;;;;;;;;;10425708;28;20045;-76
2023/07/11 17:07:22;;;;;;;6.90;3.15;;;;;;;;;;10427110;28;20128;-76
2023/07/11 17:12:26;;;;;;;5.40;3.22;;;;;;;;;;10429554;28;20068;-76
2023/07/11 17:17:30;;;;;;;6.55;3.50;;;;;;;;;;10425993;28;20187;-77
2023/07/11 17:22:34;;;;;;;5.50;3.70;;;;;;;;;;10426887;28;20232;-77
2023/07/11 17:27:38;;;;;;;7.53;3.50;;;;;;;;;;10424786;28;20045;-77
2023/07/11 17:32:42;;;;;;;7.47;3.67;;;;;;;;;;10423491;28;20041;-76
2023/07/11 17:37:47;;;;;;;8.35;4.35;;;;;;;;;;10428241;28;20764;-77
2023/07/11 17:42:53;;;;;;;8.88;3.85;;;;;;;;;;10426768;28;20487;-75
2023/07/11 17:47:55;;;;;;;11.73;4.18;;;;;;;;;;10426457;28;20522;-77
2023/07/11 17:53:19;;;;;;;9.23;3.80;;;;;;;;;;10427117;28;20487;-76
2023/07/11 17:58:24;;;;;;;10.07;4.20;;;;;;;;;;10441210;28;20447;-77
2023/07/11 18:03:29;;;;;;;9.38;4.03;;;;;;;;;;10428746;28;20067;-75
2023/07/11 18:08:32;;;;;;;6.90;3.90;;;;;;;;;;10445555;28;20036;-76
2023/07/11 18:13:37;;;;;;;9.35;4.25;;;;;;;;;;10431170;28;20053;-77
2023/07/11 18:18:40;;;;;;;8.93;3.90;;;;;;;;;;10430023;28;20040;-76
2023/07/11 18:23:43;;;;;;;8.50;3.78;;;;;;;;;;10430038;28;21081;-77
2023/07/11 18:28:47;;;;;;;8.50;4.35;;;;;;;;;;10430824;28;20048;-74
2023/07/11 18:33:50;;;;;;;12.98;5.43;;;;;;;;;;10430132;28;20037;-76
2023/07/11 18:38:54;;;;;;;7.18;3.60;;;;;;;;;;10429920;28;20123;-77
2023/07/11 18:43:58;;;;;;;11.07;7.32;;;;;;;;;;10433628;28;20579;-77
2023/07/11 18:49:00;;;;;;;11.48;7.18;;;;;;;;;;10430816;28;20068;-77
2023/07/11 18:54:03;;;;;;;14.30;7.10;;;;;;;;;;10429372;28;20040;-76
2023/07/11 18:59:09;;;;;;;10.05;5.57;;;;;;;;;;10429473;28;20051;-77
2023/07/11 19:04:11;;;;;;;15.27;8.48;;;;;;;;;;10427830;28;20134;-75
2023/07/11 19:09:14;;;;;;;12.43;5.55;;;;;;;;;;10425392;28;20045;-77
2023/07/11 19:14:18;;;;;;;20.40;9.90;;;;;;;;;;10423583;28;20040;-76
2023/07/11 19:19:24;;;;;;;12.13;5.45;;;;;;;;;;10422487;28;20391;-76
2023/07/11 19:24:27;;;;;;;12.18;5.18;;;;;;;;;;10420649;28;20083;-77
2023/07/11 19:29:32;;;;;;;12.10;5.32;;;;;;;;;;10421385;28;20479;-76
2023/07/11 19:34:35;;;;;;;9.90;5.18;;;;;;;;;;10428462;28;20103;-77
2023/07/11 19:39:38;;;;;;;13.73;5.72;;;;;;;;;;10434940;28;20048;-76
2023/07/11 19:44:42;;;;;;;19.65;10.02;;;;;;;;;;10446142;28;20510;-77
2023/07/11 19:49:45;;;;;;;15.10;7.55;;;;;;;;;;10452009;28;20124;-76
2023/07/11 19:54:48;;;;;;;15.50;9.00;;;;;;;;;;10443631;28;20102;-77
2023/07/11 19:59:52;;;;;;;13.75;8.07;;;;;;;;;;10442651;28;20041;-76
2023/07/11 20:04:55;;;;;;;13.32;7.15;;;;;;;;;;10437750;28;20044;-77
2023/07/11 20:09:57;;;;;;;14.18;7.90;;;;;;;;;;10443144;28;20068;-77
2023/07/11 20:15:02;;;;;;;13.65;7.45;;;;;;;;;;10443108;28;20115;-78
2023/07/11 20:20:13;;;;;;;12.10;6.20;;;;;;;;;;10428286;28;20043;-76
2023/07/11 20:25:16;;;;;;;11.82;6.40;;;;;;;;;;10424775;28;20037;-76
2023/07/11 20:30:22;;;;;;;17.40;6.35;;;;;;;;;;10424550;28;20502;-76
2023/07/11 20:35:24;;;;;;;12.30;6.07;;;;;;;;;;10420602;28;20136;-75
2023/07/11 20:40:29;;;;;;;13.05;5.20;;;;;;;;;;10424388;28;20140;-76
2023/07/11 20:45:33;;;;;;;13.60;6.28;;;;;;;;;;10430280;28;20053;-75
2023/07/11 20:50:37;;;;;;;9.35;5.65;;;;;;;;;;10422064;28;20044;-76
2023/07/11 20:55:46;;;;;;;12.40;6.10;;;;;;;;;;10425804;28;20049;-75
2023/07/11 21:00:51;;;;;;;10.35;5.82;;;;;;;;;;10422113;28;20037;-77
2023/07/11 21:05:55;;;;;;;10.02;5.97;;;;;;;;;;10419892;28;20052;-78
2023/07/11 21:11:00;;;;;;;11.40;6.22;;;;;;;;;;10422120;28;20037;-75
2023/07/11 21:16:05;;;;;;;10.32;5.78;;;;;;;;;;10422140;28;20071;-77
2023/07/11 21:21:09;;;;;;;12.63;5.75;;;;;;;;;;10423573;28;20069;-77
2023/07/11 21:26:14;;;;;;;13.50;6.13;;;;;;;;;;10429830;28;20199;-76
2023/07/11 21:31:20;;;;;;;16.60;6.45;;;;;;;;;;10427352;28;20052;-76
2023/07/11 21:36:24;;;;;;;11.27;5.10;;;;;;;;;;10433050;28;20402;-75
2023/07/11 21:41:27;;;;;;;10.52;5.55;;;;;;;;;;10434070;28;20052;-76
2023/07/11 21:46:33;;;;;;;18.27;6.28;;;;;;;;;;10432787;28;20044;-82
2023/07/11 21:51:36;;;;;;;25.30;3.00;;;;;;;;;;10431957;28;20406;-80
2023/07/11 21:56:38;;;;;;;;;;;;;;;;;;10430308;28;20044;-80
2023/07/11 22:01:42;;;;;;;6.88;2.38;;;;;;;;;;10428127;28;19972;-78
2023/07/11 22:06:45;;;;;;;7.90;2.17;;;;;;;;;;10427175;28;20509;-78
2023/07/11 22:11:48;;;;;;;7.28;2.05;;;;;;;;;;10428800;28;20041;-79
2023/07/11 22:16:53;;;;;;;5.90;1.88;;;;;;;;;;10430826;28;20041;-79
2023/07/11 22:22:13;;;;;;;6.22;1.73;;;;;;;;;;10434461;28;20080;-79
2023/07/11 22:27:16;;;;;;;6.72;1.88;;;;;;;;;;10436469;28;20521;-79
2023/07/11 22:32:20;;;;;;;4.43;1.80;;;;;;;;;;10441963;28;20056;-79
2023/07/11 22:37:23;;;;;;;8.20;2.33;;;;;;;;;;10435765;28;20037;-79
2023/07/11 22:42:26;;;;;;;6.25;2.17;;;;;;;;;;10434328;28;20098;-79
2023/07/11 22:47:30;;;;;;;3.28;1.40;;;;;;;;;;10428912;28;20151;-79
2023/07/11 22:52:34;;;;;;;7.53;2.40;;;;;;;;;;10428849;28;20045;-79
2023/07/11 22:57:37;;;;;;;8.25;2.65;;;;;;;;;;10448912;28;20048;-79
2023/07/11 23:02:41;;;;;;;6.32;1.73;;;;;;;;;;10435722;28;20149;-79
2023/07/11 23:07:44;;;;;;;8.30;2.22;;;;;;;;;;10427721;28;20087;-79
2023/07/11 23:12:47;;;;;;;3.92;1.27;;;;;;;;;;10432788;28;20569;-79
2023/07/11 23:17:51;;;;;;;7.63;2.33;;;;;;;;;;10430971;28;20053;-80
2023/07/11 23:22:54;;;;;;;5.03;2.10;;;;;;;;;;10438694;28;20052;-80
2023/07/11 23:27:58;;;;;;;6.70;2.20;;;;;;;;;;10437153;28;20127;-78
2023/07/11 23:33:02;;;;;;;11.48;1.98;;;;;;;;;;10431889;28;20063;-79
2023/07/11 23:38:04;;;;;;;4.38;1.88;;;;;;;;;;10433276;28;20049;-80
2023/07/11 23:43:08;;;;;;;6.03;2.20;;;;;;;;;;10433169;28;20118;-79
2023/07/11 23:48:16;;;;;;;5.38;2.45;;;;;;;;;;10424973;28;20033;-76
2023/07/11 23:53:19;;;;;;;8.20;3.17;;;;;;;;;;10424672;28;20044;-75
2023/07/11 23:58:23;;;;;;;5.22;2.42;;;;;;;;;;10426039;28;20043;-76
